createdAt,value
2018-04-28T00:01:40.349Z,10.00
2018-04-28T00:04:06.401Z,9.90
2018-04-28T00:06:32.490Z,9.90
2018-04-28T00:08:59.367Z,9.80
2018-04-28T00:11:26.258Z,9.70
2018-04-28T00:13:52.300Z,9.70
2018-04-28T00:16:22.630Z,9.70
2018-04-28T00:18:56.538Z,9.70
2018-04-28T00:21:22.674Z,9.70
2018-04-28T00:23:48.714Z,9.70
2018-04-28T00:26:14.803Z,9.70
2018-04-28T00:28:42.774Z,9.70
2018-04-28T00:31:08.812Z,9.70
2018-04-28T00:33:38.612Z,9.70
2018-04-28T00:36:04.673Z,9.60
2018-04-28T00:38:30.716Z,9.60
2018-04-28T00:40:57.081Z,9.60
2018-04-28T00:43:23.150Z,9.60
2018-04-28T00:49:09.618Z,9.50
2018-04-28T00:51:37.623Z,9.50
2018-04-28T00:54:14.753Z,9.60
2018-04-28T00:56:48.789Z,9.60
2018-04-28T00:59:16.494Z,9.50
2018-04-28T01:01:43.462Z,9.50
2018-04-28T01:04:24.449Z,9.40
2018-04-28T01:06:50.508Z,9.40
2018-04-28T01:09:16.560Z,9.30
2018-04-28T01:11:42.590Z,9.20
2018-04-28T01:14:11.509Z,9.20
2018-04-28T01:16:41.697Z,9.20
2018-04-28T01:19:08.640Z,9.20
2018-04-28T01:21:45.666Z,9.20
2018-04-28T01:24:18.915Z,9.20
2018-04-28T01:30:06.373Z,9.20
2018-04-28T01:46:20.338Z,9.20
2018-04-28T01:48:46.430Z,9.20
2018-04-28T01:51:13.366Z,9.20
2018-04-28T01:53:44.356Z,9.20
2018-04-28T01:56:19.543Z,9.10
2018-04-28T01:58:59.477Z,9.10
2018-04-28T02:01:26.443Z,9.00
2018-04-28T02:03:58.442Z,9.00
2018-04-28T02:09:40.065Z,8.90
2018-04-28T02:17:48.314Z,8.80
2018-04-28T02:20:29.342Z,8.80
2018-04-28T02:23:08.553Z,8.70
2018-04-28T02:28:42.668Z,8.60
2018-04-28T02:31:15.430Z,8.60
2018-04-28T02:33:45.342Z,8.60
2018-04-28T02:36:19.563Z,8.60
2018-04-28T02:38:46.489Z,8.70
2018-04-28T02:41:20.753Z,8.70
2018-04-28T02:46:53.042Z,9.00
2018-04-28T02:52:15.987Z,9.00
2018-04-28T02:54:44.904Z,9.10
2018-04-28T02:57:11.821Z,9.20
2018-04-28T02:59:37.900Z,9.20
2018-04-28T03:05:33.021Z,9.30
2018-04-28T03:08:04.852Z,9.40
2018-04-28T03:10:52.200Z,9.50
2018-04-28T03:13:21.091Z,9.40
2018-04-28T03:15:48.738Z,9.50
2018-04-28T03:18:19.666Z,9.50
2018-04-28T03:20:45.757Z,9.60
2018-04-28T03:23:18.902Z,9.60
2018-04-28T03:25:46.244Z,9.60
2018-04-28T03:28:33.525Z,9.60
2018-04-28T03:31:05.862Z,9.70
2018-04-28T03:33:34.857Z,9.70
2018-04-28T03:36:11.761Z,9.80
2018-04-28T03:38:40.799Z,9.80
2018-04-28T03:41:25.664Z,9.80
2018-04-28T03:43:51.788Z,9.80
2018-04-28T03:46:21.658Z,9.80
2018-04-28T03:48:47.724Z,9.80
2018-04-28T03:51:18.866Z,9.70
2018-04-28T03:53:51.757Z,9.70
2018-04-28T03:56:17.829Z,9.60
2018-04-28T03:58:57.107Z,9.50
2018-04-28T04:01:35.318Z,9.50
2018-04-28T04:04:19.261Z,9.40
2018-04-28T04:06:52.279Z,9.30
2018-04-28T04:09:26.283Z,9.30
2018-04-28T04:12:10.816Z,9.20
2018-04-28T04:14:48.669Z,9.10
2018-04-28T04:17:21.654Z,9.10
2018-04-28T04:23:31.964Z,9.00
2018-04-28T04:26:16.798Z,8.90
2018-04-28T04:31:54.813Z,8.90
2018-04-28T04:34:44.589Z,8.90
2018-04-28T04:37:10.686Z,8.80
2018-04-28T04:39:39.688Z,8.90
2018-04-28T04:42:09.672Z,8.90
2018-04-28T04:44:41.630Z,8.90
2018-04-28T04:47:17.813Z,8.90
2018-04-28T04:52:40.688Z,9.00
2018-04-28T04:55:13.748Z,9.00
2018-04-28T04:57:56.674Z,9.00
2018-04-28T05:03:56.017Z,9.20
2018-04-28T05:06:24.826Z,9.20
2018-04-28T05:09:00.811Z,9.30
2018-04-28T05:11:40.048Z,9.30
2018-04-28T05:14:13.082Z,9.40
2018-04-28T05:16:47.115Z,9.40
2018-04-28T05:19:19.983Z,9.50
2018-04-28T05:21:51.843Z,9.50
2018-04-28T05:24:25.756Z,9.60
2018-04-28T05:26:54.693Z,9.70
2018-04-28T05:29:33.873Z,9.70
2018-04-28T05:32:06.004Z,9.70
2018-04-28T05:34:39.774Z,9.90
2018-04-28T05:37:13.121Z,9.90
2018-04-28T05:43:04.814Z,10.10
2018-04-28T05:45:43.221Z,10.30
2018-04-28T05:51:50.301Z,10.80
2018-04-28T05:54:26.422Z,11.10
2018-04-28T05:57:04.472Z,11.40
2018-04-28T05:59:42.773Z,11.50
2018-04-28T06:02:14.803Z,11.60
2018-04-28T06:05:01.836Z,11.80
2018-04-28T06:07:29.964Z,11.90
2018-04-28T06:10:06.882Z,12.10
2018-04-28T06:15:52.325Z,12.30
2018-04-28T06:18:30.687Z,12.20
2018-04-28T06:20:57.831Z,12.40
2018-04-28T06:23:24.014Z,12.50
2018-04-28T06:25:50.119Z,12.80
2018-04-28T06:28:16.178Z,12.90
2018-04-28T06:30:42.286Z,13.00
2018-04-28T06:33:08.328Z,13.10
2018-04-28T06:35:34.417Z,13.10
2018-04-28T06:38:00.486Z,13.20
2018-04-28T06:40:26.564Z,13.10
2018-04-28T06:42:52.814Z,13.10
2018-04-28T06:45:18.854Z,13.10
2018-04-28T06:47:44.969Z,13.10
2018-04-28T06:50:11.395Z,13.00
2018-04-28T06:52:37.482Z,12.90
2018-04-28T06:55:03.548Z,13.00
2018-04-28T06:57:30.531Z,12.90
2018-04-28T06:59:56.600Z,12.80
2018-04-28T07:02:22.677Z,13.00
2018-04-28T07:04:49.495Z,13.30
2018-04-28T07:07:15.546Z,13.30
2018-04-28T07:09:41.618Z,13.50
2018-04-28T07:12:07.688Z,13.80
2018-04-28T07:14:33.780Z,14.20
2018-04-28T07:16:59.941Z,14.20
2018-04-28T07:19:26.000Z,14.20
2018-04-28T07:21:52.108Z,14.30
2018-04-28T07:24:18.172Z,14.40
2018-04-28T07:26:44.234Z,14.50
2018-04-28T07:29:10.362Z,14.60
2018-04-28T07:31:36.485Z,14.70
2018-04-28T07:34:02.574Z,14.70
2018-04-28T07:36:29.388Z,14.80
2018-04-28T07:38:55.481Z,14.80
2018-04-28T07:41:22.321Z,14.80
2018-04-28T07:43:49.158Z,15.10
2018-04-28T07:46:15.218Z,15.00
2018-04-28T07:48:42.020Z,15.20
2018-04-28T07:51:08.063Z,15.10
2018-04-28T07:53:34.100Z,15.10
2018-04-28T07:56:00.406Z,15.10
2018-04-28T07:58:27.226Z,15.20
2018-04-28T08:00:53.282Z,15.20
2018-04-28T08:03:19.407Z,15.00
2018-04-28T08:05:45.467Z,14.90
2018-04-28T08:08:12.263Z,15.00
2018-04-28T08:10:38.383Z,15.00
2018-04-28T08:13:04.436Z,14.90
2018-04-28T08:15:30.483Z,15.00
2018-04-28T08:17:56.565Z,15.00
2018-04-28T08:20:22.670Z,14.90
2018-04-28T08:22:48.716Z,15.00
2018-04-28T08:25:14.768Z,15.10
2018-04-28T08:27:40.925Z,15.40
2018-04-28T08:30:06.975Z,15.60
2018-04-28T08:32:33.071Z,16.20
2018-04-28T08:34:59.171Z,16.50
2018-04-28T08:37:25.419Z,16.40
2018-04-28T08:39:51.554Z,16.20
2018-04-28T08:42:18.315Z,16.10
2018-04-28T08:44:45.469Z,15.80
2018-04-28T08:47:11.692Z,15.80
2018-04-28T08:49:37.769Z,15.90
2018-04-28T08:52:03.839Z,16.10
2018-04-28T08:54:31.553Z,16.10
2018-04-28T08:56:57.646Z,16.10
2018-04-28T08:59:36.041Z,16.20
2018-04-28T09:02:02.138Z,16.30
2018-04-28T09:04:28.924Z,16.10
2018-04-28T09:06:55.115Z,16.10
2018-04-28T09:09:21.385Z,16.30
2018-04-28T09:11:47.512Z,16.70
2018-04-28T09:14:14.434Z,16.90
2018-04-28T09:16:40.552Z,16.90
2018-04-28T09:19:06.661Z,17.20
2018-04-28T09:21:32.713Z,17.00
2018-04-28T09:23:58.811Z,16.70
2018-04-28T09:26:25.657Z,16.80
2018-04-28T09:28:51.731Z,16.70
2018-04-28T09:31:17.823Z,16.80
2018-04-28T09:33:43.914Z,16.90
2018-04-28T09:36:09.985Z,16.90
2018-04-28T09:38:36.040Z,17.20
2018-04-28T09:41:03.007Z,17.20
2018-04-28T09:43:29.052Z,17.20
2018-04-28T09:45:55.887Z,17.10
2018-04-28T09:48:22.023Z,17.00
2018-04-28T09:50:48.041Z,17.20
2018-04-28T09:53:14.085Z,17.40
2018-04-28T09:55:40.136Z,17.80
2018-04-28T09:58:06.464Z,17.90
2018-04-28T10:00:34.528Z,18.00
2018-04-28T10:03:00.646Z,17.90
2018-04-28T10:05:26.702Z,17.40
2018-04-28T10:07:52.786Z,17.40
2018-04-28T10:10:18.873Z,17.50
2018-04-28T10:12:44.934Z,17.60
2018-04-28T10:15:11.025Z,17.80
2018-04-28T10:17:37.867Z,18.30
2018-04-28T10:20:04.442Z,18.30
2018-04-28T10:22:30.453Z,18.60
2018-04-28T10:24:56.570Z,18.60
2018-04-28T10:27:22.653Z,18.30
2018-04-28T10:29:48.717Z,18.30
2018-04-28T10:32:14.767Z,18.20
2018-04-28T10:34:40.874Z,18.30
2018-04-28T10:37:06.974Z,18.40
2018-04-28T10:39:33.026Z,18.60
2018-04-28T10:41:59.834Z,18.60
2018-04-28T10:44:25.879Z,18.50
2018-04-28T10:46:52.114Z,18.80
2018-04-28T10:49:18.139Z,18.70
2018-04-28T10:51:44.219Z,18.60
2018-04-28T10:54:10.392Z,18.40
2018-04-28T10:56:36.465Z,18.70
2018-04-28T10:59:02.586Z,18.70
2018-04-28T11:01:28.706Z,18.70
2018-04-28T11:03:55.495Z,18.90
2018-04-28T11:06:21.702Z,18.80
2018-04-28T11:08:47.749Z,18.80
2018-04-28T11:11:13.849Z,18.70
2018-04-28T11:13:40.002Z,18.60
2018-04-28T11:16:06.844Z,18.90
2018-04-28T11:18:32.913Z,18.90
2018-04-28T11:20:58.981Z,18.60
2018-04-28T11:23:25.016Z,18.40
2018-04-28T11:25:51.242Z,18.20
2018-04-28T11:28:17.291Z,18.00
2018-04-28T11:30:43.342Z,17.80
2018-04-28T11:33:09.404Z,17.70
2018-04-28T11:35:35.447Z,17.60
2018-04-28T11:38:01.553Z,17.60
2018-04-28T11:40:28.403Z,17.40
2018-04-28T11:42:54.446Z,17.40
2018-04-28T11:45:20.527Z,17.70
2018-04-28T11:47:47.601Z,18.50
2018-04-28T11:50:13.649Z,18.50
2018-04-28T11:52:39.692Z,18.30
2018-04-28T11:55:05.761Z,18.30
2018-04-28T11:57:31.785Z,18.10
2018-04-28T11:59:57.862Z,18.00
2018-04-28T12:02:24.094Z,17.80
2018-04-28T12:04:50.141Z,17.50
2018-04-28T12:07:16.928Z,17.30
2018-04-28T12:09:42.985Z,17.30
2018-04-28T12:12:09.044Z,17.30
2018-04-28T12:14:35.100Z,17.30
2018-04-28T12:17:01.174Z,17.50
2018-04-28T12:19:27.226Z,17.50
2018-04-28T12:21:54.146Z,17.90
2018-04-28T12:24:20.215Z,17.90
2018-04-28T12:26:46.274Z,18.60
2018-04-28T12:29:12.372Z,19.90
2018-04-28T12:31:39.165Z,21.00
2018-04-28T12:34:05.229Z,21.00
2018-04-28T12:36:31.303Z,21.30
2018-04-28T12:38:58.109Z,20.30
2018-04-28T12:41:24.210Z,20.30
2018-04-28T12:43:50.273Z,20.20
2018-04-28T12:46:16.347Z,20.20
2018-04-28T12:48:42.415Z,20.10
2018-04-28T12:51:08.523Z,19.90
2018-04-28T12:53:35.528Z,19.60
2018-04-28T12:56:01.575Z,19.30
2018-04-28T12:58:27.639Z,19.30
2018-04-28T13:00:53.747Z,19.40
2018-04-28T13:03:19.796Z,21.10
2018-04-28T13:05:45.929Z,21.00
2018-04-28T13:08:12.064Z,20.50
2018-04-28T13:10:38.159Z,21.80
2018-04-28T13:13:04.982Z,22.30
2018-04-28T13:15:31.070Z,22.30
2018-04-28T13:17:57.915Z,22.50
2018-04-28T13:20:24.719Z,22.50
2018-04-28T13:22:51.089Z,22.50
2018-04-28T13:25:17.935Z,22.30
2018-04-28T13:27:43.970Z,22.30
2018-04-28T13:30:10.038Z,22.90
2018-04-28T13:32:42.987Z,23.40
2018-04-28T13:35:09.150Z,23.80
2018-04-28T13:37:35.962Z,24.20
2018-04-28T13:40:02.005Z,24.10
2018-04-28T13:42:28.076Z,24.90
2018-04-28T13:44:54.174Z,24.30
2018-04-28T13:47:20.246Z,24.20
2018-04-28T13:49:46.275Z,24.20
2018-04-28T13:52:12.396Z,23.00
2018-04-28T13:54:38.485Z,21.60
2018-04-28T13:57:04.537Z,21.10
2018-04-28T13:59:31.371Z,22.20
2018-04-28T14:01:57.445Z,22.20
2018-04-28T14:04:23.524Z,23.70
2018-04-28T14:06:49.653Z,24.00
2018-04-28T14:09:15.756Z,23.40
2018-04-28T14:11:42.579Z,25.10
2018-04-28T14:14:08.620Z,25.10
2018-04-28T14:16:34.669Z,25.50
2018-04-28T14:19:00.728Z,24.70
2018-04-28T14:21:26.778Z,24.20
2018-04-28T14:23:52.878Z,23.60
2018-04-28T14:26:19.229Z,22.60
2018-04-28T14:28:46.014Z,23.00
2018-04-28T14:31:12.045Z,22.90
2018-04-28T14:33:38.144Z,22.90
2018-04-28T14:36:04.194Z,22.50
2018-04-28T14:38:31.039Z,23.00
2018-04-28T14:40:57.134Z,22.90
2018-04-28T14:43:23.273Z,22.90
2018-04-28T14:45:49.482Z,22.20
2018-04-28T14:48:16.279Z,20.80
2018-04-28T14:50:42.326Z,20.70
2018-04-28T14:53:08.732Z,20.20
2018-04-28T14:55:34.818Z,19.80
2018-04-28T14:58:00.878Z,19.40
2018-04-28T15:00:27.066Z,19.00
2018-04-28T15:02:53.178Z,19.00
2018-04-28T15:05:19.376Z,18.90
2018-04-28T15:07:45.445Z,19.00
2018-04-28T15:10:12.304Z,20.00
2018-04-28T15:12:38.661Z,20.00
2018-04-28T15:15:04.779Z,21.30
2018-04-28T15:17:31.091Z,21.30
2018-04-28T15:19:57.183Z,22.50
2018-04-28T15:22:23.290Z,23.90
2018-04-28T15:24:49.368Z,25.10
2018-04-28T15:27:15.467Z,24.30
2018-04-28T15:29:41.498Z,22.90
2018-04-28T15:32:07.651Z,22.10
2018-04-28T15:34:33.838Z,21.80
2018-04-28T15:37:00.193Z,21.70
2018-04-28T15:39:26.318Z,21.60
2018-04-28T15:41:52.374Z,21.70
2018-04-28T15:44:18.452Z,21.70
2018-04-28T15:46:44.499Z,21.10
2018-04-28T15:49:11.298Z,20.40
2018-04-28T15:51:37.330Z,20.40
2018-04-28T15:54:03.493Z,20.50
2018-04-28T15:56:29.593Z,20.40
2018-04-28T15:58:55.647Z,20.50
2018-04-28T16:01:23.828Z,19.70
2018-04-28T16:03:52.090Z,19.30
2018-04-28T16:06:18.898Z,19.10
2018-04-28T16:08:45.821Z,19.00
2018-04-28T16:11:11.869Z,18.70
2018-04-28T16:13:38.004Z,18.60
2018-04-28T16:16:04.129Z,18.50
2018-04-28T16:18:30.278Z,18.40
2018-04-28T16:20:56.348Z,18.40
2018-04-28T16:23:22.477Z,18.20
2018-04-28T16:25:48.587Z,18.00
2018-04-28T16:28:14.650Z,17.80
2018-04-28T16:30:40.701Z,17.70
2018-04-28T16:33:06.773Z,17.60
2018-04-28T16:35:32.866Z,17.60
2018-04-28T16:37:58.964Z,18.10
2018-04-28T16:40:25.054Z,18.40
2018-04-28T16:42:51.491Z,18.10
2018-04-28T16:45:17.885Z,17.90
2018-04-28T16:47:44.673Z,17.80
2018-04-28T16:50:10.760Z,17.70
2018-04-28T16:52:36.874Z,17.70
2018-04-28T16:55:02.944Z,17.70
2018-04-28T16:57:30.156Z,17.60
2018-04-28T16:59:56.524Z,17.50
2018-04-28T17:02:24.161Z,17.50
2018-04-28T17:04:50.423Z,17.50
2018-04-28T17:07:16.533Z,17.50
2018-04-28T17:09:44.911Z,17.40
2018-04-28T17:12:11.795Z,17.20
2018-04-28T17:14:37.896Z,17.20
2018-04-28T17:17:05.084Z,17.10
2018-04-28T17:19:36.505Z,17.00
2018-04-28T17:22:15.562Z,17.20
2018-04-28T17:24:41.894Z,17.20
2018-04-28T17:27:08.068Z,17.10
2018-04-28T17:29:34.174Z,17.10
2018-04-28T17:32:00.239Z,17.00
2018-04-28T17:34:27.039Z,16.90
2018-04-28T17:36:53.285Z,16.90
2018-04-28T17:39:19.673Z,16.90
2018-04-28T17:41:45.746Z,16.80
2018-04-28T17:44:11.876Z,16.70
2018-04-28T17:46:38.909Z,16.60
2018-04-28T17:49:05.744Z,16.50
2018-04-28T17:51:31.869Z,16.50
2018-04-28T17:53:57.975Z,16.40
2018-04-28T17:56:24.537Z,16.40
2018-04-28T17:58:50.652Z,16.30
2018-04-28T18:01:16.728Z,16.20
2018-04-28T18:03:42.898Z,16.20
2018-04-28T18:06:09.026Z,16.20
2018-04-28T18:08:35.125Z,16.10
2018-04-28T18:11:01.596Z,16.10
2018-04-28T18:13:27.664Z,16.00
2018-04-28T18:15:54.453Z,15.90
2018-04-28T18:18:20.574Z,15.90
2018-04-28T18:20:46.701Z,15.90
2018-04-28T18:23:13.861Z,15.70
2018-04-28T18:25:40.036Z,15.70
2018-04-28T18:28:06.282Z,15.70
2018-04-28T18:30:32.351Z,15.60
2018-04-28T18:32:58.431Z,15.50
2018-04-28T18:35:24.830Z,15.40
2018-04-28T18:37:50.907Z,15.40
2018-04-28T18:40:18.747Z,15.20
2018-04-28T18:42:44.928Z,15.20
2018-04-28T18:45:11.073Z,15.10
2018-04-28T18:47:37.275Z,15.00
2018-04-28T18:50:03.571Z,14.90
2018-04-28T18:52:29.709Z,14.90
2018-04-28T18:54:55.810Z,14.80
2018-04-28T18:57:22.275Z,14.70
2018-04-28T18:59:49.142Z,14.50
2018-04-28T19:02:15.225Z,14.40
2018-04-28T19:04:42.624Z,14.40
2018-04-28T19:07:08.727Z,14.20
2018-04-28T19:09:34.853Z,14.20
2018-04-28T19:12:01.058Z,14.10
2018-04-28T19:14:27.114Z,14.10
2018-04-28T19:16:53.310Z,14.00
2018-04-28T19:19:19.442Z,13.90
2018-04-28T19:21:45.666Z,13.90
2018-04-28T19:24:11.743Z,13.90
2018-04-28T19:26:38.616Z,13.80
2018-04-28T19:29:04.883Z,13.80
2018-04-28T19:31:31.035Z,13.80
2018-04-28T19:33:57.627Z,13.70
2018-04-28T19:36:23.746Z,13.70
2018-04-28T19:38:50.063Z,13.70
2018-04-28T19:41:16.193Z,13.70
2018-04-28T19:43:42.279Z,13.70
2018-04-28T19:46:09.116Z,13.70
2018-04-28T19:48:35.224Z,13.60
2018-04-28T19:51:01.320Z,13.60
2018-04-28T19:53:27.349Z,13.60
2018-04-28T19:55:53.848Z,13.60
2018-04-28T19:58:19.919Z,13.60
2018-04-28T20:00:46.004Z,13.50
2018-04-28T20:03:12.072Z,13.50
2018-04-28T20:05:38.377Z,13.50
2018-04-28T20:08:04.471Z,13.50
2018-04-28T20:10:30.554Z,13.40
2018-04-28T20:12:57.364Z,13.40
2018-04-28T20:15:24.436Z,13.40
2018-04-28T20:17:51.509Z,13.40
2018-04-28T20:20:17.894Z,13.30
2018-04-28T20:22:56.103Z,13.30
2018-04-28T20:25:23.298Z,13.10
2018-04-28T20:27:49.415Z,13.20
2018-04-28T20:30:16.349Z,13.10
2018-04-28T20:32:42.471Z,13.00
2018-04-28T20:35:09.496Z,13.10
2018-04-28T20:37:35.598Z,13.00
2018-04-28T20:40:01.877Z,13.00
2018-04-28T20:42:27.990Z,13.00
2018-04-28T20:44:54.129Z,13.00
2018-04-28T20:47:21.078Z,13.00
2018-04-28T20:49:47.173Z,13.00
2018-04-28T20:52:13.267Z,13.00
2018-04-28T20:54:39.396Z,13.00
2018-04-28T20:57:05.576Z,13.00
2018-04-28T20:59:31.773Z,13.00
2018-04-28T21:01:58.723Z,12.90
2018-04-28T21:04:25.528Z,13.00
2018-04-28T21:06:52.062Z,12.90
2018-04-28T21:09:18.174Z,12.90
2018-04-28T21:11:44.270Z,12.90
2018-04-28T21:14:10.395Z,12.90
2018-04-28T21:16:36.698Z,12.90
2018-04-28T21:19:02.893Z,12.90
2018-04-28T21:21:28.955Z,12.90
2018-04-28T21:23:55.383Z,12.90
2018-04-28T21:26:21.515Z,12.90
2018-04-28T21:28:47.667Z,12.90
2018-04-28T21:31:13.883Z,12.90
2018-04-28T21:33:39.980Z,12.90
2018-04-28T21:36:09.056Z,12.90
2018-04-28T21:38:35.374Z,12.90
2018-04-28T21:41:01.529Z,12.90
2018-04-28T21:43:36.199Z,12.90
2018-04-28T21:46:02.378Z,12.90
2018-04-28T21:48:28.466Z,12.90
2018-04-28T21:50:54.741Z,12.80
2018-04-28T21:53:24.860Z,12.80
2018-04-28T21:55:52.301Z,12.80
2018-04-28T21:58:20.550Z,12.80
2018-04-28T22:00:46.722Z,12.80
2018-04-28T22:03:12.866Z,12.80
2018-04-28T22:05:40.773Z,12.80
2018-04-28T22:08:06.836Z,12.80
2018-04-28T22:10:32.914Z,12.80
2018-04-28T22:12:59.034Z,12.80
2018-04-28T22:15:25.113Z,12.80
2018-04-28T22:17:51.458Z,12.80
2018-04-28T22:20:17.642Z,12.80
2018-04-28T22:22:43.795Z,12.80
2018-04-28T22:25:10.855Z,12.70
2018-04-28T22:27:37.174Z,12.70
2018-04-28T22:30:03.320Z,12.70
2018-04-28T22:32:29.491Z,12.70
2018-04-28T22:34:55.677Z,12.70
2018-04-28T22:37:22.610Z,12.70
2018-04-28T22:39:49.676Z,12.70
2018-04-28T22:42:15.786Z,12.60
2018-04-28T22:44:41.912Z,12.60
2018-04-28T22:47:08.382Z,12.60
2018-04-28T22:49:34.470Z,12.70
2018-04-28T22:52:00.582Z,12.70
2018-04-28T22:54:27.418Z,12.60
2018-04-28T22:56:53.628Z,12.60
2018-04-28T22:59:19.698Z,12.60
2018-04-28T23:01:45.822Z,12.60
2018-04-28T23:04:11.908Z,12.60
2018-04-28T23:06:38.859Z,12.70
2018-04-28T23:09:04.895Z,12.60
2018-04-28T23:11:31.738Z,12.60
2018-04-28T23:13:57.854Z,12.60
2018-04-28T23:16:23.947Z,12.60
2018-04-28T23:18:50.255Z,12.60
2018-04-28T23:21:16.388Z,12.60
2018-04-28T23:23:42.476Z,12.60
2018-04-28T23:26:08.712Z,12.60
2018-04-28T23:28:34.827Z,12.60
2018-04-28T23:31:01.636Z,12.50
2018-04-28T23:33:27.743Z,12.40
2018-04-28T23:35:53.870Z,12.40
2018-04-28T23:38:21.035Z,12.40
2018-04-28T23:40:48.011Z,12.40
2018-04-28T23:43:14.107Z,12.30
2018-04-28T23:45:40.269Z,12.40
2018-04-28T23:48:07.913Z,12.40
2018-04-28T23:50:33.978Z,12.40
2018-04-28T23:53:00.836Z,12.30
2018-04-28T23:55:26.950Z,12.30
2018-04-28T23:57:53.144Z,12.40
